KRN weather

Kiruna Airport
Kiruna, Norrbottena län, Sweden

Public forecast

Using degrees Celsius for public forecast. Weather courtesy of forecast.io.

Current aviation weather report (METAR) for Kiruna Airport

Retrieved 2020/08/05 07:50 UTC (2 hours ago):

ESNQ 050750Z AUTO 35005KT 310V020 9999 R03/P1500N R21///// BKN023/// BKN029/// OVC076/// 14/08 Q1006

Aviation forecast (TAF) for Kiruna Airport

Forecast is more than 12 hours old.

Retrieved 2018/12/09 21:15 UTC (2 years ago):

TAF TAF ESNQ 092030Z 0921/1014 01005KT 9999 OVC010 TEMPO 0921/0924 1200 SN VV004